sensor_id;sensor_type;location;lat;lon;timestamp;P1;durP1;ratioP1;P2;durP2;ratioP2
9986;SDS011;5033;46.310;11.214;2022-12-18T00:02:16;4.78;;;4.47;;
9986;SDS011;5033;46.310;11.214;2022-12-18T00:04:43;4.93;;;4.63;;
9986;SDS011;5033;46.310;11.214;2022-12-18T00:07:10;4.97;;;4.68;;
9986;SDS011;5033;46.310;11.214;2022-12-18T00:09:38;5.25;;;4.90;;
9986;SDS011;5033;46.310;11.214;2022-12-18T00:12:07;4.68;;;4.38;;
9986;SDS011;5033;46.310;11.214;2022-12-18T00:14:34;5.57;;;5.18;;
9986;SDS011;5033;46.310;11.214;2022-12-18T00:17:01;5.68;;;5.28;;
9986;SDS011;5033;46.310;11.214;2022-12-18T00:19:29;4.97;;;4.68;;
9986;SDS011;5033;46.310;11.214;2022-12-18T00:21:56;5.13;;;4.80;;
9986;SDS011;5033;46.310;11.214;2022-12-18T00:24:24;5.18;;;4.88;;
9986;SDS011;5033;46.310;11.214;2022-12-18T00:26:51;4.72;;;4.43;;
9986;SDS011;5033;46.310;11.214;2022-12-18T00:29:20;5.05;;;4.75;;
9986;SDS011;5033;46.310;11.214;2022-12-18T00:31:47;4.72;;;4.43;;
9986;SDS011;5033;46.310;11.214;2022-12-18T00:34:15;4.97;;;4.68;;
9986;SDS011;5033;46.310;11.214;2022-12-18T00:36:42;5.30;;;5.00;;
9986;SDS011;5033;46.310;11.214;2022-12-18T00:39:10;5.10;;;4.80;;
9986;SDS011;5033;46.310;11.214;2022-12-18T00:41:37;5.07;;;4.78;;
9986;SDS011;5033;46.310;11.214;2022-12-18T00:44:23;4.72;;;4.43;;
9986;SDS011;5033;46.310;11.214;2022-12-18T00:46:51;4.82;;;4.53;;
9986;SDS011;5033;46.310;11.214;2022-12-18T00:49:18;4.80;;;4.50;;
9986;SDS011;5033;46.310;11.214;2022-12-18T00:51:46;4.38;;;4.07;;
9986;SDS011;5033;46.310;11.214;2022-12-18T00:54:14;4.65;;;4.35;;
9986;SDS011;5033;46.310;11.214;2022-12-18T00:56:42;4.95;;;4.65;;
9986;SDS011;5033;46.310;11.214;2022-12-18T00:59:10;4.53;;;4.22;;
9986;SDS011;5033;46.310;11.214;2022-12-18T01:01:39;4.95;;;4.65;;
9986;SDS011;5033;46.310;11.214;2022-12-18T01:04:06;4.60;;;4.30;;
9986;SDS011;5033;46.310;11.214;2022-12-18T01:06:33;5.15;;;4.85;;
9986;SDS011;5033;46.310;11.214;2022-12-18T01:09:00;5.22;;;4.93;;
9986;SDS011;5033;46.310;11.214;2022-12-18T01:11:28;4.85;;;4.55;;
9986;SDS011;5033;46.310;11.214;2022-12-18T01:13:55;4.93;;;4.63;;
9986;SDS011;5033;46.310;11.214;2022-12-18T01:16:22;4.60;;;4.30;;
9986;SDS011;5033;46.310;11.214;2022-12-18T01:18:52;5.10;;;4.70;;
9986;SDS011;5033;46.310;11.214;2022-12-18T01:21:20;4.47;;;4.18;;
9986;SDS011;5033;46.310;11.214;2022-12-18T01:23:50;5.43;;;5.03;;
9986;SDS011;5033;46.310;11.214;2022-12-18T01:26:19;4.80;;;4.50;;
9986;SDS011;5033;46.310;11.214;2022-12-18T01:28:49;5.10;;;4.80;;
9986;SDS011;5033;46.310;11.214;2022-12-18T01:31:17;5.18;;;4.88;;
9986;SDS011;5033;46.310;11.214;2022-12-18T01:33:47;5.05;;;4.75;;
9986;SDS011;5033;46.310;11.214;2022-12-18T01:36:17;4.68;;;4.38;;
9986;SDS011;5033;46.310;11.214;2022-12-18T01:38:45;5.22;;;4.93;;
9986;SDS011;5033;46.310;11.214;2022-12-18T01:41:13;5.00;;;4.70;;
9986;SDS011;5033;46.310;11.214;2022-12-18T01:43:45;5.72;;;5.38;;
9986;SDS011;5033;46.310;11.214;2022-12-18T01:46:16;4.93;;;4.63;;
9986;SDS011;5033;46.310;11.214;2022-12-18T01:48:44;5.07;;;4.68;;
9986;SDS011;5033;46.310;11.214;2022-12-18T01:51:13;5.10;;;4.80;;
9986;SDS011;5033;46.310;11.214;2022-12-18T01:53:42;4.88;;;4.57;;
9986;SDS011;5033;46.310;11.214;2022-12-18T01:56:12;5.10;;;4.80;;
9986;SDS011;5033;46.310;11.214;2022-12-18T01:58:43;4.97;;;4.68;;
9986;SDS011;5033;46.310;11.214;2022-12-18T02:01:16;4.78;;;4.47;;
9986;SDS011;5033;46.310;11.214;2022-12-18T02:03:44;5.03;;;4.72;;
9986;SDS011;5033;46.310;11.214;2022-12-18T02:06:13;5.80;;;5.40;;
9986;SDS011;5033;46.310;11.214;2022-12-18T02:08:48;5.35;;;5.05;;
9986;SDS011;5033;46.310;11.214;2022-12-18T02:11:27;5.05;;;4.75;;
9986;SDS011;5033;46.310;11.214;2022-12-18T02:14:03;4.80;;;4.50;;
9986;SDS011;5033;46.310;11.214;2022-12-18T02:16:38;5.35;;;4.95;;
9986;SDS011;5033;46.310;11.214;2022-12-18T02:19:14;5.35;;;5.05;;
9986;SDS011;5033;46.310;11.214;2022-12-18T02:21:52;5.15;;;4.85;;
9986;SDS011;5033;46.310;11.214;2022-12-18T02:24:31;4.72;;;4.43;;
9986;SDS011;5033;46.310;11.214;2022-12-18T02:27:06;5.22;;;4.93;;
9986;SDS011;5033;46.310;11.214;2022-12-18T02:29:36;4.95;;;4.65;;
9986;SDS011;5033;46.310;11.214;2022-12-18T02:32:09;5.88;;;5.43;;
9986;SDS011;5033;46.310;11.214;2022-12-18T02:34:43;5.78;;;5.38;;
9986;SDS011;5033;46.310;11.214;2022-12-18T02:37:13;5.68;;;5.38;;
9986;SDS011;5033;46.310;11.214;2022-12-18T02:39:43;5.25;;;4.95;;
9986;SDS011;5033;46.310;11.214;2022-12-18T02:42:15;5.10;;;4.80;;
9986;SDS011;5033;46.310;11.214;2022-12-18T02:44:44;5.32;;;5.00;;
9986;SDS011;5033;46.310;11.214;2022-12-18T02:47:13;4.88;;;4.57;;
9986;SDS011;5033;46.310;11.214;2022-12-18T02:49:45;5.10;;;4.80;;
9986;SDS011;5033;46.310;11.214;2022-12-18T02:52:21;5.22;;;4.93;;
9986;SDS011;5033;46.310;11.214;2022-12-18T02:54:59;5.13;;;4.80;;
9986;SDS011;5033;46.310;11.214;2022-12-18T02:57:36;5.00;;;4.68;;
9986;SDS011;5033;46.310;11.214;2022-12-18T03:00:10;5.03;;;4.72;;
9986;SDS011;5033;46.310;11.214;2022-12-18T03:02:41;5.00;;;4.63;;
9986;SDS011;5033;46.310;11.214;2022-12-18T03:05:13;5.43;;;5.03;;
9986;SDS011;5033;46.310;11.214;2022-12-18T03:07:46;5.10;;;4.72;;
9986;SDS011;5033;46.310;11.214;2022-12-18T03:10:19;5.22;;;4.78;;
9986;SDS011;5033;46.310;11.214;2022-12-18T03:12:53;4.70;;;4.40;;
9986;SDS011;5033;46.310;11.214;2022-12-18T03:15:26;5.13;;;4.82;;
9986;SDS011;5033;46.310;11.214;2022-12-18T03:17:57;4.57;;;4.35;;
9986;SDS011;5033;46.310;11.214;2022-12-18T03:20:29;4.68;;;4.38;;
9986;SDS011;5033;46.310;11.214;2022-12-18T03:22:59;5.47;;;5.18;;
9986;SDS011;5033;46.310;11.214;2022-12-18T03:25:30;4.82;;;4.50;;
9986;SDS011;5033;46.310;11.214;2022-12-18T03:28:00;5.50;;;5.10;;
9986;SDS011;5033;46.310;11.214;2022-12-18T03:30:30;4.90;;;4.60;;
9986;SDS011;5033;46.310;11.214;2022-12-18T03:33:02;5.57;;;5.20;;
9986;SDS011;5033;46.310;11.214;2022-12-18T03:35:35;5.45;;;5.13;;
9986;SDS011;5033;46.310;11.214;2022-12-18T03:38:05;5.00;;;4.70;;
9986;SDS011;5033;46.310;11.214;2022-12-18T03:40:35;4.63;;;4.32;;
9986;SDS011;5033;46.310;11.214;2022-12-18T03:43:15;5.10;;;4.80;;
9986;SDS011;5033;46.310;11.214;2022-12-18T03:45:48;4.75;;;4.45;;
9986;SDS011;5033;46.310;11.214;2022-12-18T03:48:20;4.85;;;4.55;;
9986;SDS011;5033;46.310;11.214;2022-12-18T03:50:56;5.25;;;4.95;;
9986;SDS011;5033;46.310;11.214;2022-12-18T03:53:25;5.70;;;5.30;;
9986;SDS011;5033;46.310;11.214;2022-12-18T03:55:59;5.50;;;5.10;;
9986;SDS011;5033;46.310;11.214;2022-12-18T03:58:30;4.97;;;4.68;;
9986;SDS011;5033;46.310;11.214;2022-12-18T04:01:00;5.45;;;5.15;;
9986;SDS011;5033;46.310;11.214;2022-12-18T04:03:31;5.35;;;5.03;;
9986;SDS011;5033;46.310;11.214;2022-12-18T04:06:00;5.28;;;4.97;;
9986;SDS011;5033;46.310;11.214;2022-12-18T04:08:30;4.85;;;4.53;;
9986;SDS011;5033;46.310;11.214;2022-12-18T04:10:58;5.03;;;4.65;;
9986;SDS011;5033;46.310;11.214;2022-12-18T04:13:27;5.78;;;5.38;;
9986;SDS011;5033;46.310;11.214;2022-12-18T04:15:59;4.90;;;4.60;;
9986;SDS011;5033;46.310;11.214;2022-12-18T04:18:26;5.53;;;5.22;;
9986;SDS011;5033;46.310;11.214;2022-12-18T04:20:54;5.25;;;4.95;;
9986;SDS011;5033;46.310;11.214;2022-12-18T04:23:21;5.30;;;5.00;;
9986;SDS011;5033;46.310;11.214;2022-12-18T04:25:48;4.38;;;4.18;;
9986;SDS011;5033;46.310;11.214;2022-12-18T04:28:16;4.97;;;4.57;;
9986;SDS011;5033;46.310;11.214;2022-12-18T04:30:44;5.13;;;4.82;;
9986;SDS011;5033;46.310;11.214;2022-12-18T04:33:12;4.88;;;4.57;;
9986;SDS011;5033;46.310;11.214;2022-12-18T04:35:44;4.97;;;4.68;;
9986;SDS011;5033;46.310;11.214;2022-12-18T04:38:11;5.22;;;4.93;;
9986;SDS011;5033;46.310;11.214;2022-12-18T04:40:39;5.25;;;4.88;;
9986;SDS011;5033;46.310;11.214;2022-12-18T04:43:06;4.90;;;4.63;;
9986;SDS011;5033;46.310;11.214;2022-12-18T04:45:34;5.20;;;4.90;;
9986;SDS011;5033;46.310;11.214;2022-12-18T04:48:03;4.57;;;4.28;;
9986;SDS011;5033;46.310;11.214;2022-12-18T04:50:31;5.28;;;4.88;;
9986;SDS011;5033;46.310;11.214;2022-12-18T04:52:58;5.25;;;4.95;;
9986;SDS011;5033;46.310;11.214;2022-12-18T04:55:26;5.15;;;4.85;;
9986;SDS011;5033;46.310;11.214;2022-12-18T04:57:54;5.18;;;4.88;;
9986;SDS011;5033;46.310;11.214;2022-12-18T05:00:21;4.60;;;4.40;;
9986;SDS011;5033;46.310;11.214;2022-12-18T05:02:49;4.93;;;4.63;;
9986;SDS011;5033;46.310;11.214;2022-12-18T05:05:18;4.72;;;4.40;;
9986;SDS011;5033;46.310;11.214;2022-12-18T05:07:45;4.68;;;4.45;;
9986;SDS011;5033;46.310;11.214;2022-12-18T05:10:13;5.32;;;5.03;;
9986;SDS011;5033;46.310;11.214;2022-12-18T05:12:40;5.10;;;4.80;;
9986;SDS011;5033;46.310;11.214;2022-12-18T05:15:21;5.95;;;5.55;;
9986;SDS011;5033;46.310;11.214;2022-12-18T05:17:48;5.20;;;4.90;;
9986;SDS011;5033;46.310;11.214;2022-12-18T05:20:15;5.80;;;5.40;;
9986;SDS011;5033;46.310;11.214;2022-12-18T05:22:44;5.50;;;5.20;;
9986;SDS011;5033;46.310;11.214;2022-12-18T05:25:12;5.90;;;5.50;;
9986;SDS011;5033;46.310;11.214;2022-12-18T05:27:39;5.22;;;4.93;;
9986;SDS011;5033;46.310;11.214;2022-12-18T05:30:07;5.20;;;4.90;;
9986;SDS011;5033;46.310;11.214;2022-12-18T05:32:35;5.22;;;4.82;;
9986;SDS011;5033;46.310;11.214;2022-12-18T05:35:03;5.43;;;5.13;;
9986;SDS011;5033;46.310;11.214;2022-12-18T05:37:32;4.95;;;4.65;;
9986;SDS011;5033;46.310;11.214;2022-12-18T05:40:00;5.10;;;4.80;;
9986;SDS011;5033;46.310;11.214;2022-12-18T05:42:27;4.97;;;4.68;;
9986;SDS011;5033;46.310;11.214;2022-12-18T05:44:55;4.90;;;4.60;;
9986;SDS011;5033;46.310;11.214;2022-12-18T05:47:22;5.85;;;5.40;;
9986;SDS011;5033;46.310;11.214;2022-12-18T05:49:50;5.32;;;5.03;;
9986;SDS011;5033;46.310;11.214;2022-12-18T05:52:17;4.53;;;4.22;;
9986;SDS011;5033;46.310;11.214;2022-12-18T05:54:45;4.72;;;4.50;;
9986;SDS011;5033;46.310;11.214;2022-12-18T05:57:13;4.53;;;4.25;;
9986;SDS011;5033;46.310;11.214;2022-12-18T05:59:40;5.22;;;4.93;;
9986;SDS011;5033;46.310;11.214;2022-12-18T06:02:07;4.97;;;4.68;;
9986;SDS011;5033;46.310;11.214;2022-12-18T06:04:35;5.18;;;4.88;;
9986;SDS011;5033;46.310;11.214;2022-12-18T06:07:02;5.57;;;5.28;;
9986;SDS011;5033;46.310;11.214;2022-12-18T06:09:29;5.22;;;4.93;;
9986;SDS011;5033;46.310;11.214;2022-12-18T06:11:58;5.30;;;5.00;;
9986;SDS011;5033;46.310;11.214;2022-12-18T06:14:25;5.22;;;4.82;;
9986;SDS011;5033;46.310;11.214;2022-12-18T06:16:53;4.95;;;4.65;;
9986;SDS011;5033;46.310;11.214;2022-12-18T06:19:20;5.15;;;4.85;;
9986;SDS011;5033;46.310;11.214;2022-12-18T06:21:47;5.18;;;4.78;;
9986;SDS011;5033;46.310;11.214;2022-12-18T06:24:15;4.50;;;4.20;;
9986;SDS011;5033;46.310;11.214;2022-12-18T06:26:43;5.38;;;5.07;;
9986;SDS011;5033;46.310;11.214;2022-12-18T06:29:11;5.22;;;4.93;;
9986;SDS011;5033;46.310;11.214;2022-12-18T06:31:45;5.22;;;4.93;;
9986;SDS011;5033;46.310;11.214;2022-12-18T06:34:12;5.45;;;5.15;;
9986;SDS011;5033;46.310;11.214;2022-12-18T06:36:39;4.90;;;4.60;;
9986;SDS011;5033;46.310;11.214;2022-12-18T06:39:06;5.05;;;4.65;;
9986;SDS011;5033;46.310;11.214;2022-12-18T06:41:34;5.32;;;5.03;;
9986;SDS011;5033;46.310;11.214;2022-12-18T06:44:01;4.80;;;4.55;;
9986;SDS011;5033;46.310;11.214;2022-12-18T06:46:30;5.03;;;4.72;;
9986;SDS011;5033;46.310;11.214;2022-12-18T06:48:58;4.38;;;4.15;;
9986;SDS011;5033;46.310;11.214;2022-12-18T06:51:26;5.65;;;5.25;;
9986;SDS011;5033;46.310;11.214;2022-12-18T06:53:53;5.88;;;5.47;;
9986;SDS011;5033;46.310;11.214;2022-12-18T06:56:20;5.47;;;5.07;;
9986;SDS011;5033;46.310;11.214;2022-12-18T06:58:48;4.97;;;4.68;;
9986;SDS011;5033;46.310;11.214;2022-12-18T07:01:15;5.30;;;4.90;;
9986;SDS011;5033;46.310;11.214;2022-12-18T07:03:44;5.53;;;5.13;;
9986;SDS011;5033;46.310;11.214;2022-12-18T07:06:15;5.45;;;5.07;;
9986;SDS011;5033;46.310;11.214;2022-12-18T07:08:43;4.72;;;4.43;;
9986;SDS011;5033;46.310;11.214;2022-12-18T07:11:11;39.33;;;8.63;;
9986;SDS011;5033;46.310;11.214;2022-12-18T07:13:38;18.85;;;7.78;;
9986;SDS011;5033;46.310;11.214;2022-12-18T07:16:06;7.55;;;6.80;;
9986;SDS011;5033;46.310;11.214;2022-12-18T07:18:35;5.82;;;5.30;;
9986;SDS011;5033;46.310;11.214;2022-12-18T07:21:04;6.00;;;5.50;;
9986;SDS011;5033;46.310;11.214;2022-12-18T07:23:33;6.55;;;5.95;;
9986;SDS011;5033;46.310;11.214;2022-12-18T07:26:02;6.55;;;6.05;;
9986;SDS011;5033;46.310;11.214;2022-12-18T07:28:31;5.93;;;5.45;;
9986;SDS011;5033;46.310;11.214;2022-12-18T07:31:01;5.68;;;5.28;;
9986;SDS011;5033;46.310;11.214;2022-12-18T07:33:29;7.45;;;6.75;;
9986;SDS011;5033;46.310;11.214;2022-12-18T07:35:58;7.38;;;6.68;;
9986;SDS011;5033;46.310;11.214;2022-12-18T07:38:27;6.97;;;6.38;;
9986;SDS011;5033;46.310;11.214;2022-12-18T07:40:59;7.82;;;7.13;;
9986;SDS011;5033;46.310;11.214;2022-12-18T07:43:27;8.90;;;8.02;;
9986;SDS011;5033;46.310;11.214;2022-12-18T07:45:54;7.72;;;6.82;;
9986;SDS011;5033;46.310;11.214;2022-12-18T07:48:21;6.55;;;6.05;;
9986;SDS011;5033;46.310;11.214;2022-12-18T07:50:49;6.43;;;5.93;;
9986;SDS011;5033;46.310;11.214;2022-12-18T07:53:16;6.05;;;5.65;;
9986;SDS011;5033;46.310;11.214;2022-12-18T07:55:45;6.50;;;6.05;;
9986;SDS011;5033;46.310;11.214;2022-12-18T07:58:12;5.80;;;5.40;;
9986;SDS011;5033;46.310;11.214;2022-12-18T08:00:40;5.47;;;5.07;;
9986;SDS011;5033;46.310;11.214;2022-12-18T08:03:07;5.60;;;5.22;;
9986;SDS011;5033;46.310;11.214;2022-12-18T08:05:35;5.80;;;5.40;;
9986;SDS011;5033;46.310;11.214;2022-12-18T08:08:02;5.47;;;5.07;;
9986;SDS011;5033;46.310;11.214;2022-12-18T08:10:29;5.50;;;5.10;;
9986;SDS011;5033;46.310;11.214;2022-12-18T08:12:58;5.38;;;5.07;;
9986;SDS011;5033;46.310;11.214;2022-12-18T08:15:25;5.55;;;5.18;;
9986;SDS011;5033;46.310;11.214;2022-12-18T08:17:55;5.18;;;4.88;;
9986;SDS011;5033;46.310;11.214;2022-12-18T08:20:23;5.80;;;5.50;;
9986;SDS011;5033;46.310;11.214;2022-12-18T08:22:50;5.38;;;5.07;;
9986;SDS011;5033;46.310;11.214;2022-12-18T08:25:18;5.13;;;4.75;;
9986;SDS011;5033;46.310;11.214;2022-12-18T08:27:45;4.95;;;4.65;;
9986;SDS011;5033;46.310;11.214;2022-12-18T08:30:15;4.93;;;4.53;;
9986;SDS011;5033;46.310;11.214;2022-12-18T08:32:42;4.45;;;4.15;;
9986;SDS011;5033;46.310;11.214;2022-12-18T08:35:10;5.95;;;5.55;;
9986;SDS011;5033;46.310;11.214;2022-12-18T08:37:37;7.25;;;6.65;;
9986;SDS011;5033;46.310;11.214;2022-12-18T08:40:05;6.88;;;6.28;;
9986;SDS011;5033;46.310;11.214;2022-12-18T08:42:34;7.13;;;6.45;;
9986;SDS011;5033;46.310;11.214;2022-12-18T08:45:20;5.43;;;5.03;;
9986;SDS011;5033;46.310;11.214;2022-12-18T08:47:47;5.82;;;5.32;;
9986;SDS011;5033;46.310;11.214;2022-12-18T08:50:15;6.10;;;5.60;;
9986;SDS011;5033;46.310;11.214;2022-12-18T08:52:42;5.72;;;5.22;;
9986;SDS011;5033;46.310;11.214;2022-12-18T08:55:11;5.72;;;5.28;;
9986;SDS011;5033;46.310;11.214;2022-12-18T08:57:38;4.88;;;4.57;;
9986;SDS011;5033;46.310;11.214;2022-12-18T09:00:06;6.85;;;6.13;;
9986;SDS011;5033;46.310;11.214;2022-12-18T09:02:36;5.60;;;5.20;;
9986;SDS011;5033;46.310;11.214;2022-12-18T09:05:04;4.22;;;3.90;;
9986;SDS011;5033;46.310;11.214;2022-12-18T09:07:32;4.78;;;4.43;;
9986;SDS011;5033;46.310;11.214;2022-12-18T09:09:59;5.32;;;4.82;;
9986;SDS011;5033;46.310;11.214;2022-12-18T09:12:26;4.78;;;4.47;;
9986;SDS011;5033;46.310;11.214;2022-12-18T09:14:54;4.65;;;4.35;;
9986;SDS011;5033;46.310;11.214;2022-12-18T09:17:22;7.60;;;4.53;;
9986;SDS011;5033;46.310;11.214;2022-12-18T09:19:51;4.40;;;4.00;;
9986;SDS011;5033;46.310;11.214;2022-12-18T09:22:18;4.32;;;3.92;;
9986;SDS011;5033;46.310;11.214;2022-12-18T09:24:45;4.13;;;3.80;;
9986;SDS011;5033;46.310;11.214;2022-12-18T09:27:13;4.10;;;3.70;;
9986;SDS011;5033;46.310;11.214;2022-12-18T09:29:40;4.07;;;3.70;;
9986;SDS011;5033;46.310;11.214;2022-12-18T09:32:08;4.45;;;4.05;;
9986;SDS011;5033;46.310;11.214;2022-12-18T09:34:37;4.50;;;4.10;;
9986;SDS011;5033;46.310;11.214;2022-12-18T09:37:06;4.00;;;3.70;;
9986;SDS011;5033;46.310;11.214;2022-12-18T09:39:33;3.70;;;3.40;;
9986;SDS011;5033;46.310;11.214;2022-12-18T09:42:01;3.92;;;3.63;;
9986;SDS011;5033;46.310;11.214;2022-12-18T09:44:29;4.50;;;4.10;;
9986;SDS011;5033;46.310;11.214;2022-12-18T09:47:03;3.63;;;3.33;;
9986;SDS011;5033;46.310;11.214;2022-12-18T09:49:35;4.22;;;3.83;;
9986;SDS011;5033;46.310;11.214;2022-12-18T09:52:11;4.25;;;3.85;;
9986;SDS011;5033;46.310;11.214;2022-12-18T09:54:43;4.63;;;4.30;;
9986;SDS011;5033;46.310;11.214;2022-12-18T09:57:14;4.10;;;3.80;;
9986;SDS011;5033;46.310;11.214;2022-12-18T09:59:44;3.90;;;3.60;;
9986;SDS011;5033;46.310;11.214;2022-12-18T10:02:17;3.97;;;3.67;;
9986;SDS011;5033;46.310;11.214;2022-12-18T10:04:49;3.88;;;3.58;;
9986;SDS011;5033;46.310;11.214;2022-12-18T10:07:31;4.20;;;3.90;;
9986;SDS011;5033;46.310;11.214;2022-12-18T10:10:14;4.50;;;4.13;;
9986;SDS011;5033;46.310;11.214;2022-12-18T10:12:54;4.25;;;3.88;;
9986;SDS011;5033;46.310;11.214;2022-12-18T10:15:30;4.68;;;4.28;;
9986;SDS011;5033;46.310;11.214;2022-12-18T10:18:05;4.97;;;4.57;;
9986;SDS011;5033;46.310;11.214;2022-12-18T10:20:44;6.07;;;5.47;;
9986;SDS011;5033;46.310;11.214;2022-12-18T10:23:17;5.15;;;4.65;;
9986;SDS011;5033;46.310;11.214;2022-12-18T10:25:53;4.82;;;4.45;;
9986;SDS011;5033;46.310;11.214;2022-12-18T10:28:24;4.45;;;4.15;;
9986;SDS011;5033;46.310;11.214;2022-12-18T10:30:53;4.55;;;4.15;;
9986;SDS011;5033;46.310;11.214;2022-12-18T10:33:21;4.30;;;3.92;;
9986;SDS011;5033;46.310;11.214;2022-12-18T10:35:50;4.57;;;4.03;;
9986;SDS011;5033;46.310;11.214;2022-12-18T10:38:22;4.53;;;4.13;;
9986;SDS011;5033;46.310;11.214;2022-12-18T10:40:52;4.80;;;4.40;;
9986;SDS011;5033;46.310;11.214;2022-12-18T10:43:23;4.10;;;3.80;;
9986;SDS011;5033;46.310;11.214;2022-12-18T10:45:59;4.22;;;3.92;;
9986;SDS011;5033;46.310;11.214;2022-12-18T10:48:33;4.40;;;4.10;;
9986;SDS011;5033;46.310;11.214;2022-12-18T10:51:02;4.70;;;4.30;;
9986;SDS011;5033;46.310;11.214;2022-12-18T10:53:32;4.20;;;3.90;;
9986;SDS011;5033;46.310;11.214;2022-12-18T10:56:02;4.43;;;4.13;;
9986;SDS011;5033;46.310;11.214;2022-12-18T10:58:33;4.53;;;4.13;;
9986;SDS011;5033;46.310;11.214;2022-12-18T11:01:06;4.50;;;4.10;;
9986;SDS011;5033;46.310;11.214;2022-12-18T11:03:36;4.63;;;4.22;;
9986;SDS011;5033;46.310;11.214;2022-12-18T11:06:06;4.72;;;4.32;;
9986;SDS011;5033;46.310;11.214;2022-12-18T11:08:37;4.45;;;4.07;;
9986;SDS011;5033;46.310;11.214;2022-12-18T11:11:07;5.20;;;4.80;;
9986;SDS011;5033;46.310;11.214;2022-12-18T11:13:49;5.15;;;4.75;;
9986;SDS011;5033;46.310;11.214;2022-12-18T11:16:24;4.90;;;4.50;;
9986;SDS011;5033;46.310;11.214;2022-12-18T11:18:52;4.57;;;4.18;;
9986;SDS011;5033;46.310;11.214;2022-12-18T11:21:20;5.00;;;4.60;;
9986;SDS011;5033;46.310;11.214;2022-12-18T11:23:50;4.80;;;4.40;;
9986;SDS011;5033;46.310;11.214;2022-12-18T11:26:19;5.13;;;4.55;;
9986;SDS011;5033;46.310;11.214;2022-12-18T11:28:49;5.63;;;5.13;;
9986;SDS011;5033;46.310;11.214;2022-12-18T11:31:19;5.20;;;4.70;;
9986;SDS011;5033;46.310;11.214;2022-12-18T11:33:51;5.18;;;4.68;;
9986;SDS011;5033;46.310;11.214;2022-12-18T11:36:30;5.28;;;4.85;;
9986;SDS011;5033;46.310;11.214;2022-12-18T11:39:05;5.20;;;4.72;;
9986;SDS011;5033;46.310;11.214;2022-12-18T11:41:39;5.63;;;4.47;;
9986;SDS011;5033;46.310;11.214;2022-12-18T11:44:32;4.47;;;4.07;;
9986;SDS011;5033;46.310;11.214;2022-12-18T11:47:09;4.25;;;3.85;;
9986;SDS011;5033;46.310;11.214;2022-12-18T11:49:42;5.15;;;3.70;;
9986;SDS011;5033;46.310;11.214;2022-12-18T11:52:10;4.63;;;4.22;;
9986;SDS011;5033;46.310;11.214;2022-12-18T11:54:46;4.13;;;3.83;;
9986;SDS011;5033;46.310;11.214;2022-12-18T11:57:20;4.32;;;3.92;;
9986;SDS011;5033;46.310;11.214;2022-12-18T11:59:59;3.95;;;3.65;;
9986;SDS011;5033;46.310;11.214;2022-12-18T12:02:38;3.95;;;3.65;;
9986;SDS011;5033;46.310;11.214;2022-12-18T12:05:25;4.00;;;3.70;;
9986;SDS011;5033;46.310;11.214;2022-12-18T12:08:06;4.70;;;4.30;;
9986;SDS011;5033;46.310;11.214;2022-12-18T12:10:46;4.30;;;4.00;;
9986;SDS011;5033;46.310;11.214;2022-12-18T12:13:25;4.53;;;3.83;;
9986;SDS011;5033;46.310;11.214;2022-12-18T12:16:08;4.38;;;3.97;;
9986;SDS011;5033;46.310;11.214;2022-12-18T12:18:46;4.45;;;4.15;;
9986;SDS011;5033;46.310;11.214;2022-12-18T12:21:24;4.72;;;4.35;;
9986;SDS011;5033;46.310;11.214;2022-12-18T12:24:02;4.53;;;4.05;;
9986;SDS011;5033;46.310;11.214;2022-12-18T12:26:48;4.68;;;4.28;;
9986;SDS011;5033;46.310;11.214;2022-12-18T12:29:27;4.88;;;4.35;;
9986;SDS011;5033;46.310;11.214;2022-12-18T12:32:07;5.85;;;3.67;;
9986;SDS011;5033;46.310;11.214;2022-12-18T12:34:47;4.35;;;4.05;;
9986;SDS011;5033;46.310;11.214;2022-12-18T12:37:25;4.32;;;3.92;;
9986;SDS011;5033;46.310;11.214;2022-12-18T12:40:04;4.40;;;4.00;;
9986;SDS011;5033;46.310;11.214;2022-12-18T12:42:34;4.97;;;4.57;;
9986;SDS011;5033;46.310;11.214;2022-12-18T12:45:22;4.00;;;3.72;;
9986;SDS011;5033;46.310;11.214;2022-12-18T12:47:55;4.65;;;4.35;;
9986;SDS011;5033;46.310;11.214;2022-12-18T12:50:26;4.63;;;4.15;;
9986;SDS011;5033;46.310;11.214;2022-12-18T12:52:54;4.20;;;3.90;;
9986;SDS011;5033;46.310;11.214;2022-12-18T12:55:24;4.78;;;4.38;;
9986;SDS011;5033;46.310;11.214;2022-12-18T12:57:57;4.63;;;4.22;;
9986;SDS011;5033;46.310;11.214;2022-12-18T13:00:30;4.53;;;4.13;;
9986;SDS011;5033;46.310;11.214;2022-12-18T13:03:08;5.05;;;4.65;;
9986;SDS011;5033;46.310;11.214;2022-12-18T13:05:43;5.20;;;4.80;;
9986;SDS011;5033;46.310;11.214;2022-12-18T13:08:22;4.72;;;4.32;;
9986;SDS011;5033;46.310;11.214;2022-12-18T13:10:51;4.80;;;4.40;;
9986;SDS011;5033;46.310;11.214;2022-12-18T13:13:49;4.18;;;3.88;;
9986;SDS011;5033;46.310;11.214;2022-12-18T13:16:18;4.45;;;4.03;;
9986;SDS011;5033;46.310;11.214;2022-12-18T13:18:50;4.93;;;4.43;;
9986;SDS011;5033;46.310;11.214;2022-12-18T13:21:21;5.10;;;4.60;;
9986;SDS011;5033;46.310;11.214;2022-12-18T13:23:52;4.57;;;4.18;;
9986;SDS011;5033;46.310;11.214;2022-12-18T13:26:33;4.90;;;4.50;;
9986;SDS011;5033;46.310;11.214;2022-12-18T13:29:02;4.97;;;4.50;;
9986;SDS011;5033;46.310;11.214;2022-12-18T13:34:26;5.22;;;4.82;;
9986;SDS011;5033;46.310;11.214;2022-12-18T13:36:56;5.30;;;4.80;;
9986;SDS011;5033;46.310;11.214;2022-12-18T13:39:44;5.53;;;5.03;;
9986;SDS011;5033;46.310;11.214;2022-12-18T13:48:29;4.93;;;4.53;;
9986;SDS011;5033;46.310;11.214;2022-12-18T13:51:00;5.13;;;4.72;;
9986;SDS011;5033;46.310;11.214;2022-12-18T13:53:31;5.22;;;4.72;;
9986;SDS011;5033;46.310;11.214;2022-12-18T13:56:02;4.60;;;4.20;;
9986;SDS011;5033;46.310;11.214;2022-12-18T13:58:30;4.68;;;4.28;;
9986;SDS011;5033;46.310;11.214;2022-12-18T14:00:58;5.05;;;4.55;;
9986;SDS011;5033;46.310;11.214;2022-12-18T14:03:29;4.90;;;4.50;;
9986;SDS011;5033;46.310;11.214;2022-12-18T14:06:00;4.40;;;4.00;;
9986;SDS011;5033;46.310;11.214;2022-12-18T14:08:36;3.70;;;3.40;;
9986;SDS011;5033;46.310;11.214;2022-12-18T14:11:05;3.85;;;3.55;;
9986;SDS011;5033;46.310;11.214;2022-12-18T14:13:36;4.07;;;3.78;;
9986;SDS011;5033;46.310;11.214;2022-12-18T14:16:11;3.50;;;3.30;;
9986;SDS011;5033;46.310;11.214;2022-12-18T14:18:43;4.40;;;4.10;;
9986;SDS011;5033;46.310;11.214;2022-12-18T14:21:19;4.63;;;4.32;;
9986;SDS011;5033;46.310;11.214;2022-12-18T14:23:57;4.32;;;4.03;;
9986;SDS011;5033;46.310;11.214;2022-12-18T14:26:31;5.07;;;4.57;;
9986;SDS011;5033;46.310;11.214;2022-12-18T14:29:00;4.70;;;4.30;;
9986;SDS011;5033;46.310;11.214;2022-12-18T14:31:43;4.55;;;4.18;;
9986;SDS011;5033;46.310;11.214;2022-12-18T14:34:16;4.30;;;3.90;;
9986;SDS011;5033;46.310;11.214;2022-12-18T14:36:51;4.75;;;4.35;;
9986;SDS011;5033;46.310;11.214;2022-12-18T14:39:20;4.72;;;4.32;;
9986;SDS011;5033;46.310;11.214;2022-12-18T14:41:50;5.10;;;4.70;;
9986;SDS011;5033;46.310;11.214;2022-12-18T14:44:18;5.18;;;4.78;;
9986;SDS011;5033;46.310;11.214;2022-12-18T14:46:46;5.10;;;4.70;;
9986;SDS011;5033;46.310;11.214;2022-12-18T14:49:21;4.90;;;4.50;;
9986;SDS011;5033;46.310;11.214;2022-12-18T14:51:52;4.80;;;4.40;;
9986;SDS011;5033;46.310;11.214;2022-12-18T14:54:21;5.40;;;5.00;;
9986;SDS011;5033;46.310;11.214;2022-12-18T14:56:51;6.32;;;5.82;;
9986;SDS011;5033;46.310;11.214;2022-12-18T14:59:26;5.10;;;4.60;;
9986;SDS011;5033;46.310;11.214;2022-12-18T15:01:57;5.25;;;4.85;;
9986;SDS011;5033;46.310;11.214;2022-12-18T15:04:29;5.60;;;5.20;;
9986;SDS011;5033;46.310;11.214;2022-12-18T15:07:02;4.72;;;4.43;;
9986;SDS011;5033;46.310;11.214;2022-12-18T15:09:42;5.10;;;4.65;;
9986;SDS011;5033;46.310;11.214;2022-12-18T15:12:19;4.88;;;4.57;;
9986;SDS011;5033;46.310;11.214;2022-12-18T15:14:53;5.10;;;4.70;;
9986;SDS011;5033;46.310;11.214;2022-12-18T15:17:21;4.65;;;4.35;;
9986;SDS011;5033;46.310;11.214;2022-12-18T15:19:52;4.82;;;4.40;;
9986;SDS011;5033;46.310;11.214;2022-12-18T15:22:26;4.70;;;4.40;;
9986;SDS011;5033;46.310;11.214;2022-12-18T15:24:55;5.03;;;4.63;;
9986;SDS011;5033;46.310;11.214;2022-12-18T15:27:25;4.43;;;4.13;;
9986;SDS011;5033;46.310;11.214;2022-12-18T15:32:45;5.50;;;5.03;;
9986;SDS011;5033;46.310;11.214;2022-12-18T15:35:17;6.57;;;5.40;;